Time;durP1;ratioP1;P1;durP2;ratioP2;P2;SDS_P1;SDS_P2;PMS_P1;PMS_P2;Temp;Humidity;BMP_temperature;BMP_pressure;BME280_temperature;BME280_humidity;BME280_pressure;Samples;Min_cycle;Max_cycle;Signal;HPM_P1;HPM_P2
2021/11/10 00:01:44;;;;;;;44.47;14.87;;;;;;;-145.69;100.00;73540.06;5074795;28;20199;-78
2021/11/10 00:04:11;;;;;;;51.30;16.13;;;;;;;-145.69;100.00;73534.09;5074802;28;20244;-78
2021/11/10 00:06:39;;;;;;;49.63;16.67;;;;;;;-145.69;100.00;73516.19;5074281;28;20690;-78
2021/11/10 00:09:06;;;;;;;50.40;18.07;;;;;;;-145.69;100.00;73500.25;5074567;28;20199;-77
2021/11/10 00:11:33;;;;;;;57.53;18.73;;;;;;;-145.69;100.00;73480.34;5074640;28;20226;-77
2021/11/10 00:14:00;;;;;;;59.47;18.50;;;;;;;-145.69;100.00;73476.38;5074365;28;20194;-77
2021/11/10 00:16:26;;;;;;;61.97;21.57;;;;;;;-145.69;100.00;73440.53;5074363;28;20206;-78
2021/11/10 00:18:55;;;;;;;62.80;21.77;;;;;;;-145.69;100.00;73446.50;5074396;28;20202;-77
2021/11/10 00:21:22;;;;;;;54.07;18.23;;;;;;;-145.69;100.00;73458.44;5074236;28;20206;-77
2021/11/10 00:23:53;;;;;;;42.43;16.07;;;;;;;-145.69;100.00;73486.31;5074365;28;20202;-77
2021/11/10 00:26:20;;;;;;;40.90;15.33;;;;;;;-145.69;100.00;73516.19;5074156;28;20199;-77
2021/11/10 00:28:47;;;;;;;43.30;15.33;;;;;;;-145.69;100.00;73516.19;5074041;28;20207;-77
2021/11/10 00:31:14;;;;;;;43.10;15.77;;;;;;;-145.69;100.00;73540.06;5073397;28;20226;-77
2021/11/10 00:33:40;;;;;;;48.20;17.13;;;;;;;-145.69;100.00;73506.22;5073758;28;20241;-77
2021/11/10 00:36:08;;;;;;;54.67;18.30;;;;;;;-145.69;100.00;73460.44;5074185;28;20207;-77
2021/11/10 00:38:37;;;;;;;50.77;17.53;;;;;;;-145.69;100.00;73468.41;5073916;28;20203;-77
2021/11/10 00:41:08;;;;;;;54.27;17.20;;;;;;;-145.69;100.00;73468.41;5073496;28;20195;-77
2021/11/10 00:43:35;;;;;;;56.10;18.63;;;;;;;-145.69;100.00;73442.53;5073763;28;20679;-77
2021/11/10 00:46:02;;;;;;;62.10;19.27;;;;;;;-145.69;100.00;73448.50;5073904;28;20256;-77
2021/11/10 00:48:28;;;;;;;64.07;20.20;;;;;;;-145.69;100.00;73432.56;5073666;28;20546;-77
2021/11/10 00:50:55;;;;;;;61.53;20.53;;;;;;;-145.69;100.00;73412.66;5073774;28;20235;-78
2021/11/10 00:53:21;;;;;;;64.30;19.60;;;;;;;-145.69;100.00;73408.69;5073483;28;20575;-78
2021/11/10 00:55:50;;;;;;;57.60;19.63;;;;;;;-145.69;100.00;73416.66;5073630;28;20206;-78
2021/11/10 00:58:19;;;;;;;55.40;19.70;;;;;;;-145.69;100.00;73432.56;5073798;28;20213;-78
2021/11/10 01:00:47;;;;;;;42.40;16.77;;;;;;;-145.69;100.00;73450.50;5073313;28;20293;-78
2021/11/10 01:03:15;;;;;;;42.17;17.13;;;;;;;-145.69;100.00;73466.41;5073534;28;20388;-77
2021/11/10 01:05:41;;;;;;;39.17;16.23;;;;;;;-145.69;100.00;73476.38;5073953;28;20301;-77
2021/11/10 01:08:09;;;;;;;42.73;16.47;;;;;;;-145.69;100.00;73488.31;5073471;28;20615;-77
2021/11/10 01:10:36;;;;;;;43.57;16.13;;;;;;;-145.69;100.00;73464.44;5073434;28;20227;-77
2021/11/10 01:13:03;;;;;;;46.50;16.77;;;;;;;-145.69;100.00;73444.50;5072655;28;20226;-77
2021/11/10 01:15:33;;;;;;;51.30;16.73;;;;;;;-145.69;100.00;73448.50;5073198;28;20248;-77
2021/11/10 01:17:59;;;;;;;52.77;18.00;;;;;;;-145.69;100.00;73442.53;5073326;28;20202;-77
2021/11/10 01:20:26;;;;;;;55.77;18.40;;;;;;;-145.69;100.00;73426.59;5072930;28;20229;-77
2021/11/10 01:22:52;;;;;;;59.57;18.23;;;;;;;-145.69;100.00;73410.66;5073337;28;20206;-78
2021/11/10 01:25:19;;;;;;;66.90;19.10;;;;;;;-145.69;100.00;73386.78;5072573;28;20256;-77
2021/11/10 01:27:46;;;;;;;76.32;27.23;;;;;;;-145.69;100.00;73384.78;5072503;28;20978;-77
2021/11/10 01:30:13;;;;;;;52.40;19.40;;;;;;;-145.69;100.00;73388.78;5073295;28;20234;-77
2021/11/10 01:32:42;;;;;;;44.53;16.77;;;;;;;-145.69;100.00;73404.69;5072972;28;20683;-77
2021/11/10 01:35:09;;;;;;;44.77;17.00;;;;;;;-145.69;100.00;73416.66;5073214;28;20206;-77
2021/11/10 01:37:36;;;;;;;41.63;15.50;;;;;;;-145.69;100.00;73424.59;5073113;28;20236;-77
2021/11/10 01:40:03;;;;;;;38.47;15.40;;;;;;;-145.69;100.00;73408.69;5072867;28;20745;-76
2021/11/10 01:42:32;;;;;;;37.30;15.47;;;;;;;-145.69;100.00;73392.75;5072929;28;20199;-77
2021/11/10 01:44:59;;;;;;;39.27;13.87;;;;;;;-145.69;100.00;73392.75;5073161;28;20203;-77
2021/11/10 01:47:26;;;;;;;46.13;15.53;;;;;;;-145.69;100.00;73394.75;5073055;28;20203;-77
2021/11/10 01:49:53;;;;;;;41.30;14.90;;;;;;;-145.69;100.00;73404.69;5072887;28;20226;-76
2021/11/10 01:52:22;;;;;;;39.60;15.03;;;;;;;-145.69;100.00;73408.69;5073074;28;20285;-77
2021/11/10 01:54:50;;;;;;;40.77;15.43;;;;;;;-145.69;100.00;73416.66;5072586;28;20253;-77
2021/11/10 01:57:17;;;;;;;36.70;14.83;;;;;;;-145.69;100.00;73432.56;5072848;28;20205;-77
2021/11/10 01:59:48;;;;;;;37.47;13.53;;;;;;;-145.69;100.00;73446.50;5072944;28;20203;-77
2021/11/10 02:02:21;;;;;;;26.63;11.33;;;;;;;-145.69;100.00;73464.44;5072950;28;20225;-77
2021/11/10 02:04:49;;;;;;;25.20;10.70;;;;;;;-145.69;100.00;73460.44;5072934;28;20202;-77
2021/11/10 02:07:19;;;;;;;24.73;9.90;;;;;;;-145.69;100.00;73460.44;5072899;28;20573;-77
2021/11/10 02:09:50;;;;;;;28.03;9.87;;;;;;;-145.69;100.00;73464.44;5072592;28;20199;-77
2021/11/10 02:12:19;;;;;;;24.17;9.67;;;;;;;-145.69;100.00;73468.41;5072975;28;20203;-76
2021/11/10 02:14:49;;;;;;;31.20;10.90;;;;;;;-145.69;100.00;73460.44;5072674;28;20535;-77
2021/11/10 02:17:17;;;;;;;30.70;12.10;;;;;;;-145.69;100.00;73464.44;5072603;28;20793;-77
2021/11/10 02:19:44;;;;;;;29.87;11.00;;;;;;;-145.69;100.00;73472.38;5072650;28;20206;-77
2021/11/10 02:22:21;;;;;;;30.90;9.83;;;;;;;-145.69;100.00;73470.41;5072452;28;20203;-77
2021/11/10 02:24:49;;;;;;;26.53;10.40;;;;;;;-145.69;100.00;73468.41;5072705;28;20365;-77
2021/11/10 02:27:22;;;;;;;26.50;10.27;;;;;;;-145.69;100.00;73480.34;5072716;28;20230;-77
2021/11/10 02:29:51;;;;;;;36.50;12.00;;;;;;;-145.69;100.00;73440.53;5072937;28;20199;-76
2021/11/10 02:32:18;;;;;;;34.53;12.33;;;;;;;-145.69;100.00;73444.50;5073084;28;20202;-76
2021/11/10 02:34:48;;;;;;;26.93;10.17;;;;;;;-145.69;100.00;73440.53;5072424;28;20237;-76
2021/11/10 02:37:20;;;;;;;36.43;12.57;;;;;;;-145.69;100.00;73426.59;5076203;28;20225;-76
2021/11/10 02:39:48;;;;;;;35.13;12.93;;;;;;;-145.69;100.00;73432.56;5076645;28;20202;-76
2021/11/10 02:42:17;;;;;;;36.73;11.67;;;;;;;-145.69;100.00;73424.59;5076397;28;20562;-76
2021/11/10 02:44:44;;;;;;;37.10;11.80;;;;;;;-145.69;100.00;73448.50;5076406;28;20205;-76
2021/11/10 02:47:10;;;;;;;30.97;11.17;;;;;;;-145.69;100.00;73472.38;5075966;28;20210;-76
2021/11/10 02:49:40;;;;;;;29.97;10.77;;;;;;;-145.69;100.00;73476.38;5076324;28;20534;-76
2021/11/10 02:52:09;;;;;;;30.50;10.87;;;;;;;-145.69;100.00;73472.38;5076270;28;20227;-77
2021/11/10 02:54:41;;;;;;;31.90;11.53;;;;;;;-145.69;100.00;73458.44;5075996;28;20207;-76
2021/11/10 02:57:08;;;;;;;34.10;11.53;;;;;;;-145.69;100.00;73456.47;5075922;28;20692;-76
2021/11/10 02:59:37;;;;;;;32.03;10.53;;;;;;;-145.69;100.00;73456.47;5075769;28;20199;-76
2021/11/10 03:02:05;;;;;;;29.57;11.07;;;;;;;-145.69;100.00;73456.47;5076036;28;20202;-76
2021/11/10 03:04:33;;;;;;;30.40;10.43;;;;;;;-145.69;100.00;73448.50;5075895;28;20198;-76
2021/11/10 03:07:00;;;;;;;33.90;10.03;;;;;;;-145.69;100.00;73432.56;5075621;28;20207;-76
2021/11/10 03:09:29;;;;;;;29.57;10.20;;;;;;;-145.69;100.00;73442.53;5075691;28;20234;-75
2021/11/10 03:11:59;;;;;;;26.40;9.47;;;;;;;-145.69;100.00;73440.53;5075060;28;20230;-76
2021/11/10 03:14:25;;;;;;;36.83;10.23;;;;;;;-145.69;100.00;73436.56;5075632;28;20605;-76
2021/11/10 03:16:52;;;;;;;27.10;9.40;;;;;;;-145.69;100.00;73454.47;5075802;28;20244;-76
2021/11/10 03:19:19;;;;;;;25.63;9.40;;;;;;;-145.69;100.00;73436.56;5075370;28;20683;-76
2021/11/10 03:21:46;;;;;;;22.27;8.37;;;;;;;-145.69;100.00;73464.44;5075588;28;20253;-75
2021/11/10 03:24:14;;;;;;;22.83;7.60;;;;;;;-145.69;100.00;73466.41;5075536;28;20244;-76
2021/11/10 03:26:41;;;;;;;18.43;7.00;;;;;;;-145.69;100.00;73472.38;5075197;28;20564;-76
2021/11/10 03:29:13;;;;;;;21.70;6.43;;;;;;;-145.69;100.00;73468.41;5075523;28;20203;-76
2021/11/10 03:31:40;;;;;;;18.93;6.53;;;;;;;-145.69;100.00;73464.44;5075443;28;20227;-76
2021/11/10 03:34:11;;;;;;;17.67;7.10;;;;;;;-145.69;100.00;73468.41;5075382;28;20207;-76
2021/11/10 03:36:38;;;;;;;23.77;8.27;;;;;;;-145.69;100.00;73436.56;5075305;28;20202;-76
2021/11/10 03:39:05;;;;;;;29.23;8.23;;;;;;;-145.69;100.00;73432.56;5075170;28;20568;-76
2021/11/10 03:41:34;;;;;;;21.33;7.13;;;;;;;-145.69;100.00;73424.59;5075233;28;20206;-76
2021/11/10 03:44:03;;;;;;;24.87;7.20;;;;;;;-145.69;100.00;73404.69;5075183;28;20556;-76
2021/11/10 03:46:31;;;;;;;16.90;6.73;;;;;;;-145.69;100.00;73388.78;5075167;28;20209;-76
2021/11/10 03:48:58;;;;;;;20.57;7.10;;;;;;;-145.69;100.00;73404.69;5074205;28;20264;-76
2021/11/10 03:51:26;;;;;;;22.17;6.33;;;;;;;-145.69;100.00;73394.75;5074882;28;20226;-76
2021/11/10 03:53:54;;;;;;;20.93;6.23;;;;;;;-145.69;100.00;73376.81;5074681;28;20873;-75
2021/11/10 03:56:21;;;;;;;17.80;6.97;;;;;;;-145.69;100.00;73374.84;5075036;28;20277;-75
2021/11/10 03:58:47;;;;;;;19.23;5.70;;;;;;;-145.69;100.00;73364.88;5074858;28;20203;-76
2021/11/10 04:01:14;;;;;;;16.00;5.67;;;;;;;-145.69;100.00;73368.88;5074673;28;20579;-76
2021/11/10 04:03:42;;;;;;;18.53;6.23;;;;;;;-145.69;100.00;73384.78;5074481;28;20205;-76
2021/11/10 04:06:09;;;;;;;19.73;5.60;;;;;;;-145.69;100.00;73394.75;5074359;28;20244;-76
2021/11/10 04:08:36;;;;;;;21.13;5.87;;;;;;;-145.69;100.00;73346.97;5074441;28;20209;-76
2021/11/10 04:11:02;;;;;;;20.13;6.60;;;;;;;-145.69;100.00;73333.03;5074516;28;20237;-77
2021/11/10 04:13:31;;;;;;;22.17;7.60;;;;;;;-145.69;100.00;73337.00;5074162;28;20209;-76
2021/11/10 04:15:58;;;;;;;16.23;5.97;;;;;;;-145.69;100.00;73348.97;5074379;28;20209;-76
2021/11/10 04:18:27;;;;;;;13.27;4.47;;;;;;;-145.69;100.00;73356.91;5074273;28;20203;-76
2021/11/10 04:21:02;;;;;;;20.90;6.43;;;;;;;-145.69;100.00;73319.09;5074110;28;20199;-76
2021/11/10 04:23:29;;;;;;;15.13;5.63;;;;;;;-145.69;100.00;73325.06;5074519;28;20302;-77
2021/11/10 04:25:55;;;;;;;25.67;8.37;;;;;;;-145.69;100.00;73307.16;5074036;28;20625;-77
2021/11/10 04:28:22;;;;;;;12.37;4.90;;;;;;;-145.69;100.00;73339.00;5074200;28;20206;-76
2021/11/10 04:30:54;;;;;;;9.57;4.40;;;;;;;-145.69;100.00;73366.88;5074076;28;20226;-76
2021/11/10 04:33:21;;;;;;;13.97;5.03;;;;;;;-145.69;100.00;73370.84;5073925;28;20199;-76
2021/11/10 04:35:54;;;;;;;12.60;5.30;;;;;;;-145.69;100.00;73364.88;5074003;28;20202;-76
2021/11/10 04:38:23;;;;;;;17.00;6.47;;;;;;;-145.69;100.00;73354.94;5073877;28;20604;-76
2021/11/10 04:40:50;;;;;;;38.07;10.67;;;;;;;-145.69;100.00;73329.03;5074043;28;20256;-76
2021/11/10 04:43:16;;;;;;;44.27;11.80;;;;;;;-145.69;100.00;73295.19;5074127;28;20535;-76
2021/11/10 04:45:45;;;;;;;18.97;6.13;;;;;;;-145.69;100.00;73315.13;5073780;28;20259;-76
2021/11/10 04:48:12;;;;;;;19.07;5.30;;;;;;;-145.69;100.00;73333.03;5073532;28;20207;-76
2021/11/10 04:50:42;;;;;;;24.43;7.63;;;;;;;-145.69;100.00;73329.03;5073877;28;20332;-76
2021/11/10 04:53:10;;;;;;;30.67;9.53;;;;;;;-145.69;100.00;73303.16;5073595;28;20203;-76
2021/11/10 04:55:38;;;;;;;27.70;8.90;;;;;;;-145.69;100.00;73305.16;5073695;28;20199;-76
2021/11/10 04:58:05;;;;;;;26.77;8.77;;;;;;;-145.69;100.00;73293.22;5073652;28;20199;-76
2021/11/10 05:00:33;;;;;;;30.40;11.00;;;;;;;-145.69;100.00;73265.34;5073478;28;20199;-76
2021/11/10 05:03:02;;;;;;;34.37;10.80;;;;;;;-145.69;100.00;73249.41;5073714;28;20240;-76
2021/11/10 05:05:28;;;;;;;39.13;11.77;;;;;;;-145.69;100.00;73231.50;5073618;28;20202;-77
2021/11/10 05:07:55;;;;;;;38.70;12.30;;;;;;;-145.69;100.00;73219.56;5073131;28;20199;-76
2021/11/10 05:10:22;;;;;;;29.13;10.30;;;;;;;-145.69;100.00;73213.56;5073538;28;20195;-76
2021/11/10 05:12:49;;;;;;;27.67;10.00;;;;;;;-145.69;100.00;73245.44;5072509;28;20243;-76
2021/11/10 05:15:19;;;;;;;19.70;8.00;;;;;;;-145.69;100.00;73263.34;5073665;28;20233;-77
2021/11/10 05:17:45;;;;;;;21.20;7.73;;;;;;;-145.69;100.00;73273.31;5073262;28;20199;-76
2021/11/10 05:20:17;;;;;;;19.93;6.40;;;;;;;-145.69;100.00;73277.28;5073349;28;20213;-76
2021/11/10 05:22:43;;;;;;;16.90;6.67;;;;;;;-145.69;100.00;73291.22;5073271;28;20588;-76
2021/11/10 05:25:11;;;;;;;21.27;7.63;;;;;;;-145.69;100.00;73277.28;5073234;28;20209;-76
2021/11/10 05:27:39;;;;;;;19.47;7.60;;;;;;;-145.69;100.00;73265.34;5073423;28;20202;-77
2021/11/10 05:30:09;;;;;;;26.23;8.93;;;;;;;-145.69;100.00;73269.31;5072960;28;20441;-76
2021/11/10 05:32:43;;;;;;;23.63;8.10;;;;;;;-145.69;100.00;73273.31;5072717;28;20229;-76
2021/11/10 05:35:13;;;;;;;14.83;6.63;;;;;;;-145.69;100.00;73269.31;5073479;28;20281;-76
2021/11/10 05:37:46;;;;;;;26.53;6.97;;;;;;;-145.69;100.00;73249.41;5073216;28;20194;-76
2021/11/10 05:40:13;;;;;;;21.07;7.57;;;;;;;-145.69;100.00;73247.41;5073064;28;20214;-76
2021/11/10 05:42:42;;;;;;;18.03;6.53;;;;;;;-145.69;100.00;73247.41;5073500;28;20577;-77
2021/11/10 05:45:10;;;;;;;16.80;7.27;;;;;;;-145.69;100.00;73237.47;5073184;28;20207;-77
2021/11/10 05:47:37;;;;;;;12.23;5.37;;;;;;;-145.69;100.00;73249.41;5073122;28;20226;-77
2021/11/10 05:50:05;;;;;;;12.30;5.17;;;;;;;-145.69;100.00;73257.38;5073128;28;20206;-77
2021/11/10 05:52:33;;;;;;;16.43;5.77;;;;;;;-145.69;100.00;73259.38;5072977;28;20230;-77
2021/11/10 05:55:00;;;;;;;15.97;5.17;;;;;;;-145.69;100.00;73259.38;5073185;28;20288;-77
2021/11/10 05:57:29;;;;;;;18.80;6.00;;;;;;;-145.69;100.00;73251.41;5073080;28;20608;-78
2021/11/10 05:59:58;;;;;;;12.37;6.20;;;;;;;-145.69;100.00;73257.38;5072921;28;20205;-77
2021/11/10 06:02:26;;;;;;;14.07;5.57;;;;;;;-145.69;100.00;73247.41;5072853;28;20202;-78
2021/11/10 06:04:52;;;;;;;21.40;6.17;;;;;;;-145.69;100.00;73233.50;5072819;28;20650;-77
2021/11/10 06:07:19;;;;;;;20.23;6.17;;;;;;;-145.69;100.00;73235.47;5072979;28;20252;-77
2021/11/10 06:09:53;;;;;;;19.50;5.97;;;;;;;-145.69;100.00;73233.50;5072869;28;20199;-77
2021/11/10 06:12:20;;;;;;;12.03;5.07;;;;;;;-145.69;100.00;73221.53;5076386;28;20234;-77
2021/11/10 06:14:48;;;;;;;13.83;5.67;;;;;;;-145.69;100.00;73213.56;5076707;28;20256;-77
2021/11/10 06:17:15;;;;;;;16.20;5.30;;;;;;;-145.69;100.00;73221.53;5076539;28;20209;-77
2021/11/10 06:19:46;;;;;;;15.70;5.30;;;;;;;-145.69;100.00;73223.53;5076430;28;20199;-76
2021/11/10 06:22:12;;;;;;;10.23;4.70;;;;;;;-145.69;100.00;73215.56;5076719;28;20203;-77
2021/11/10 06:24:39;;;;;;;17.93;4.73;;;;;;;-145.69;100.00;73215.56;5076510;28;20271;-77
2021/11/10 06:27:06;;;;;;;10.30;5.20;;;;;;;-145.69;100.00;73215.56;5076471;28;20230;-77
2021/11/10 06:29:32;;;;;;;9.77;4.70;;;;;;;-145.69;100.00;73195.66;5076386;28;20202;-77
2021/11/10 06:32:00;;;;;;;11.57;4.83;;;;;;;-145.69;100.00;73201.63;5076175;28;20237;-77
2021/11/10 06:34:30;;;;;;;16.70;5.50;;;;;;;-145.69;100.00;73201.63;5076335;28;20195;-77
2021/11/10 06:36:57;;;;;;;14.50;5.10;;;;;;;-145.69;100.00;73183.72;5076367;28;20222;-77
2021/11/10 06:39:27;;;;;;;18.80;5.20;;;;;;;-145.69;100.00;73169.78;5076305;28;20608;-77
2021/11/10 06:41:56;;;;;;;16.37;4.87;;;;;;;-145.69;100.00;73165.81;5076342;28;20202;-78
2021/11/10 06:44:23;;;;;;;10.57;5.00;;;;;;;-145.69;100.00;73151.88;5076201;28;20624;-77
2021/11/10 06:46:49;;;;;;;16.33;4.70;;;;;;;-145.69;100.00;73133.94;5076082;28;20658;-77
2021/11/10 06:49:20;;;;;;;11.83;4.13;;;;;;;-145.69;100.00;73141.91;5075822;28;20795;-77
2021/11/10 06:51:52;;;;;;;7.47;3.73;;;;;;;-145.69;100.00;73159.84;5075884;28;20237;-77
2021/11/10 06:54:20;;;;;;;6.50;3.03;;;;;;;-145.69;100.00;73157.84;5076009;28;20237;-77
2021/11/10 06:56:48;;;;;;;7.83;3.90;;;;;;;-145.69;100.00;73165.81;5076329;28;20203;-78
2021/11/10 06:59:18;;;;;;;7.10;3.50;;;;;;;-145.69;100.00;73171.78;5075676;28;20213;-77
2021/11/10 07:01:45;;;;;;;9.10;3.40;;;;;;;-145.69;100.00;73167.78;5075981;28;20210;-77
2021/11/10 07:04:12;;;;;;;7.00;3.50;;;;;;;-145.69;100.00;73171.78;5076012;28;20209;-77
2021/11/10 07:06:38;;;;;;;6.93;3.53;;;;;;;-145.69;100.00;73161.81;5075470;28;20210;-78
2021/11/10 07:09:07;;;;;;;8.87;3.50;;;;;;;-145.69;100.00;73169.78;5075660;28;20255;-78
2021/11/10 07:11:35;;;;;;;10.93;3.30;;;;;;;-145.69;100.00;73165.81;5075440;28;20207;-77
2021/11/10 07:14:02;;;;;;;7.90;3.17;;;;;;;-145.69;100.00;73163.81;5075642;28;20664;-77
2021/11/10 07:16:29;;;;;;;10.60;3.80;;;;;;;-145.69;100.00;73169.78;5075798;28;20214;-77
2021/11/10 07:18:56;;;;;;;5.77;3.03;;;;;;;-145.69;100.00;73173.75;5075451;28;20257;-78
2021/11/10 07:21:22;;;;;;;10.77;3.70;;;;;;;-145.69;100.00;73171.78;5075433;28;20210;-77
2021/11/10 07:23:51;;;;;;;6.70;3.50;;;;;;;-145.69;100.00;73165.81;5074458;28;20297;-77
2021/11/10 07:26:17;;;;;;;28.40;8.43;;;;;;;-145.69;100.00;73149.88;5075171;28;20294;-77
2021/11/10 07:28:47;;;;;;;30.30;9.73;;;;;;;-145.69;100.00;73137.94;5075371;28;20199;-77
2021/11/10 07:31:14;;;;;;;31.10;10.93;;;;;;;-145.69;100.00;73114.03;5075377;28;20222;-77
2021/11/10 07:33:40;;;;;;;44.73;11.80;;;;;;;-145.69;100.00;73098.13;5075253;28;20227;-77
2021/11/10 07:36:07;;;;;;;17.53;7.17;;;;;;;-145.69;100.00;73098.13;5075273;28;20277;-77
2021/11/10 07:38:39;;;;;;;14.73;6.27;;;;;;;-145.69;100.00;73082.19;5075064;28;20202;-77
2021/11/10 07:41:06;;;;;;;16.10;5.50;;;;;;;-145.69;100.00;73062.28;5075023;28;20211;-77
2021/11/10 07:43:33;;;;;;;11.03;5.37;;;;;;;-145.69;100.00;73054.31;5075038;28;20209;-78
2021/11/10 07:46:09;;;;;;;12.27;5.53;;;;;;;-145.69;100.00;73044.38;5075314;28;20301;-77
2021/11/10 07:48:39;;;;;;;19.90;6.93;;;;;;;-145.69;100.00;73046.34;5075204;28;20202;-76
2021/11/10 07:51:06;;;;;;;11.37;4.07;;;;;;;-145.69;100.00;73024.47;5074721;28;20282;-78
2021/11/10 07:53:32;;;;;;;8.53;3.73;;;;;;;-145.69;100.00;73018.50;5074635;28;20234;-77
2021/11/10 07:56:01;;;;;;;7.53;3.43;;;;;;;-145.69;100.00;73010.53;5075038;28;20275;-77
2021/11/10 07:58:27;;;;;;;9.00;3.90;;;;;;;-145.69;100.00;72978.69;5074937;28;20639;-78
2021/11/10 08:00:54;;;;;;;8.77;3.77;;;;;;;-145.69;100.00;72974.69;5074839;28;20539;-77
2021/11/10 08:03:22;;;;;;;12.90;4.30;;;;;;;-145.69;100.00;72994.59;5074773;28;20202;-77
2021/11/10 08:05:49;;;;;;;14.13;4.33;;;;;;;-145.69;100.00;72962.75;5074563;28;20202;-77
2021/11/10 08:08:17;;;;;;;8.63;4.13;;;;;;;-145.69;100.00;72934.88;5074816;28;20209;-78
2021/11/10 08:10:45;;;;;;;8.93;4.43;;;;;;;-145.69;100.00;72978.69;5074387;28;20203;-79
2021/11/10 08:13:12;;;;;;;12.27;5.23;;;;;;;-145.69;100.00;72958.78;5074292;28;20231;-77
2021/11/10 08:15:39;;;;;;;13.40;5.20;;;;;;;-145.69;100.00;72958.78;5074464;28;20293;-78
2021/11/10 08:18:08;;;;;;;13.97;5.33;;;;;;;-145.69;100.00;72928.91;5074178;28;20205;-78
2021/11/10 08:20:36;;;;;;;12.40;6.00;;;;;;;-145.69;100.00;72895.06;5074048;28;20201;-78
2021/11/10 08:23:03;;;;;;;20.33;10.43;;;;;;;-145.69;100.00;72871.19;5074110;28;20569;-78
2021/11/10 08:25:30;;;;;;;23.50;10.00;;;;;;;-145.69;100.00;72847.28;5074000;28;20199;-77
2021/11/10 08:27:56;;;;;;;13.87;7.30;;;;;;;-145.69;100.00;72851.28;5073939;28;20660;-78
2021/11/10 08:30:24;;;;;;;11.37;5.73;;;;;;;-145.69;100.00;72833.38;5073516;28;20194;-77
2021/11/10 08:32:52;;;;;;;16.50;8.13;;;;;;;-145.69;100.00;72791.56;5073734;28;20231;-77
2021/11/10 08:35:19;;;;;;;16.87;8.03;;;;;;;-145.69;100.00;72759.72;5073716;28;20202;-78
2021/11/10 08:37:47;;;;;;;12.97;7.33;;;;;;;-145.69;100.00;72823.41;5073957;28;20199;-78
2021/11/10 08:40:14;;;;;;;13.00;6.03;;;;;;;-145.69;100.00;72843.31;5073823;28;20206;-77
2021/11/10 08:42:41;;;;;;;15.13;6.33;;;;;;;-145.69;100.00;72793.56;5073738;28;20202;-78
2021/11/10 08:45:13;;;;;;;16.93;6.63;;;;;;;-145.69;100.00;72775.63;5073514;28;20206;-77
2021/11/10 08:47:45;;;;;;;11.63;5.47;;;;;;;-145.69;100.00;72781.59;5073650;28;20218;-78
2021/11/10 08:50:12;;;;;;;16.93;7.47;;;;;;;-145.69;100.00;72723.88;5073480;28;20206;-77
2021/11/10 08:52:39;;;;;;;14.90;6.90;;;;;;;-145.69;100.00;72745.78;5073556;28;20230;-78
2021/11/10 08:55:10;;;;;;;18.67;8.30;;;;;;;-145.69;100.00;72733.84;5073324;28;20276;-79
2021/11/10 08:57:40;;;;;;;28.27;10.63;;;;;;;-145.69;100.00;72696.00;5073495;28;20194;-78
2021/11/10 09:00:10;;;;;;;17.63;8.27;;;;;;;-145.69;100.00;72696.00;5073296;28;20194;-78
2021/11/10 09:02:37;;;;;;;18.23;8.57;;;;;;;-145.69;100.00;72684.06;5073048;28;20293;-78
2021/11/10 09:05:07;;;;;;;22.43;9.80;;;;;;;-145.69;100.00;72658.19;5073365;28;20203;-77
2021/11/10 09:07:34;;;;;;;23.23;9.43;;;;;;;-145.69;100.00;72616.41;5073345;28;20561;-77
2021/11/10 09:10:00;;;;;;;19.53;8.67;;;;;;;-145.69;100.00;72580.56;5073233;28;20260;-78
2021/11/10 09:12:28;;;;;;;27.80;10.83;;;;;;;-145.69;100.00;72640.28;5073117;28;20272;-79
2021/11/10 09:14:59;;;;;;;19.77;10.97;;;;;;;-145.69;100.00;72672.13;5073305;28;20199;-77
2021/11/10 09:17:26;;;;;;;17.73;8.07;;;;;;;-145.69;100.00;72638.28;5072653;28;20248;-78
2021/11/10 09:19:58;;;;;;;24.87;11.73;;;;;;;-145.69;100.00;72598.47;5073233;28;20289;-77
2021/11/10 09:22:24;;;;;;;26.43;12.37;;;;;;;-145.69;100.00;72580.56;5073163;28;20206;-78
2021/11/10 09:24:51;;;;;;;23.23;11.23;;;;;;;-145.69;99.20;72594.50;5073052;28;20214;-78
2021/11/10 09:27:18;;;;;;;25.80;9.50;;;;;;;-145.69;100.00;72580.56;5073128;28;20205;-78
2021/11/10 09:29:47;;;;;;;18.55;8.68;;;;;;;-145.69;100.00;72580.56;5072077;28;20446;-78
2021/11/10 09:32:14;;;;;;;12.17;6.57;;;;;;;-145.69;99.18;72548.72;5072922;28;20569;-78
2021/11/10 09:34:40;;;;;;;13.53;7.00;;;;;;;-145.69;98.60;72500.94;5073077;28;20209;-79
2021/11/10 09:37:07;;;;;;;12.10;6.30;;;;;;;-145.69;94.91;72451.19;5073015;28;20203;-80
2021/11/10 09:39:33;;;;;;;16.80;6.93;;;;;;;-145.69;93.14;72421.34;5071205;28;20260;-79
2021/11/10 09:42:00;;;;;;;12.80;5.73;;;;;;;-145.69;88.00;72421.34;5053354;28;20290;-79
2021/11/10 09:44:32;;;;;;;14.83;5.97;;;;;;;-145.69;89.84;72489.00;5053175;28;20199;-79
2021/11/10 09:47:01;;;;;;;9.23;4.83;;;;;;;-145.69;94.41;72500.94;5052696;28;20207;-78
2021/11/10 09:49:30;;;;;;;12.67;4.80;;;;;;;-145.69;90.74;72496.97;5052842;28;20663;-78
2021/11/10 09:51:56;;;;;;;16.80;5.57;;;;;;;-145.69;91.32;72493.00;5052929;28;20274;-78
2021/11/10 09:54:25;;;;;;;12.03;5.87;;;;;;;-145.69;87.98;72491.00;5052507;28;20698;-78
2021/11/10 09:56:54;;;;;;;13.03;6.07;;;;;;;-145.69;88.92;72524.84;5071429;28;20247;-79
2021/11/10 09:59:23;;;;;;;12.70;5.73;;;;;;;-145.69;93.60;72540.75;5072385;28;20203;-79
2021/11/10 10:01:51;;;;;;;14.50;6.33;;;;;;;-145.69;93.60;72508.91;5073057;28;20230;-79
2021/11/10 10:04:19;;;;;;;11.77;6.17;;;;;;;-145.69;91.16;72496.97;5072778;28;20256;-77
2021/11/10 10:06:46;;;;;;;10.07;5.07;;;;;;;-145.69;89.41;72461.13;5053016;28;20199;-78
2021/11/10 10:09:13;;;;;;;11.30;5.43;;;;;;;-145.69;89.52;72461.13;5052927;28;20222;-78
2021/11/10 10:11:42;;;;;;;9.93;5.30;;;;;;;-145.69;92.90;72441.25;5052709;28;20207;-77
2021/11/10 10:14:09;;;;;;;13.97;5.73;;;;;;;-145.69;90.86;72409.38;5052827;28;20238;-79
2021/11/10 10:16:38;;;;;;;13.63;5.15;;;;;;;-145.69;87.42;72385.50;5061343;28;20931;-78
2021/11/10 10:19:06;;;;;;;9.13;4.80;;;;;;;-145.69;85.12;72369.59;5071918;28;20206;-78
2021/11/10 10:21:39;;;;;;;8.97;4.97;;;;;;;-145.69;83.95;72325.81;5072717;28;20256;-80
2021/11/10 10:24:06;;;;;;;11.30;4.70;;;;;;;-145.69;83.43;72301.91;5072484;28;20202;-79
2021/11/10 10:26:37;;;;;;;9.90;5.27;;;;;;;-145.69;82.54;72274.06;5072578;28;20202;-80
2021/11/10 10:29:09;;;;;;;20.77;8.13;;;;;;;-145.69;77.73;72250.16;5072565;28;20236;-79
2021/11/10 10:31:37;;;;;;;11.47;5.20;;;;;;;-145.69;76.89;72230.25;5072501;28;20203;-78
2021/11/10 10:34:07;;;;;;;7.07;4.10;;;;;;;-145.69;77.40;72234.25;5072400;28;20261;-78
2021/11/10 10:36:37;;;;;;;5.90;3.90;;;;;;;-145.69;75.67;72226.28;5072487;28;20625;-78
2021/11/10 10:39:08;;;;;;;8.80;4.23;;;;;;;-145.69;74.81;72234.25;5072375;28;20257;-79
2021/11/10 10:41:37;;;;;;;9.43;3.70;;;;;;;-145.69;76.06;72226.28;5072822;28;20290;-78
2021/11/10 10:44:06;;;;;;;10.50;4.27;;;;;;;-145.69;76.24;72214.34;5072145;28;20654;-79
2021/11/10 10:46:37;;;;;;;7.17;3.83;;;;;;;-145.69;76.58;72224.28;5072446;28;20199;-78
2021/11/10 10:49:16;;;;;;;7.83;3.90;;;;;;;-145.69;76.64;72212.34;5072309;28;20229;-78
2021/11/10 10:51:44;;;;;;;10.20;4.23;;;;;;;-145.69;79.09;72174.53;5072475;28;20194;-78
2021/11/10 10:54:14;;;;;;;9.47;3.93;;;;;;;-145.69;77.39;72158.63;5071612;28;20646;-79
2021/11/10 10:56:43;;;;;;;6.33;3.97;;;;;;;-145.69;76.67;72166.56;5073052;28;20207;-80
2021/11/10 10:59:12;;;;;;;7.37;3.27;;;;;;;-145.69;77.63;72206.38;5075956;28;20202;-79
2021/11/10 11:01:41;;;;;;;8.63;4.27;;;;;;;-145.69;78.53;72194.44;5076085;28;20194;-78
2021/11/10 11:04:10;;;;;;;10.87;5.83;;;;;;;-145.69;78.08;72154.63;5075977;28;20605;-78
2021/11/10 11:06:39;;;;;;;13.23;5.90;;;;;;;-145.69;76.77;72126.78;5075838;28;20249;-78